Hauptseite
METAR-TAF:

METAR-TAF

Flughäfen :

Harbin, China

Breite: 45-45N, Länge: 126-46E, Höhe: 143 m

Beobachtung

Neuester Wetterbericht von vor 1 Stunde und 5 Minuten, um 18:00 UTC
Wind 12 kt aus West
Temperatur 15°C
Luftfeuchtigkeit 41%
Luftdruck 1001 hPa
Sichtweite 10 km oder mehr
Durchbrochene Bewölkung in der Höhe von 3300 ft

METAR: ZYHB 291800Z 28006MPS 9999 BKN033 15/02 Q1001 NOSIG

Zeit: 03:05 (19:05 UTC)

Prognose

Neuester Wetterbericht von vor 4 Stunden und 1 Minuten, um 15:04 UTC
Gültige Prognose vom 29 um 18 UTC bis 30 um 18 UTC
Wind 8 kt aus Nordwest
Sichtweite: 6000 m
Aufgelockert bewölkt in der Höhe von 3000 ft
Zeitweise
vom 29 um 18 UTC bis 29 um 24 UTC
Leicht bewölkt in der Höhe von 2000 ft, Kumulonimbus.
Aufgelockert bewölkt in der Höhe von 2300 ft

TAF: ZYHB 291504Z 2918/3018 31004MPS 6000 SCT030 TX22/3006Z TN10/2921Z TEMPO 2918/2924 FEW020CB SCT023

Wetterbeobachtungen und Prognosen von mehr als 4000 Flughäfen (METAR und TAF Bericht).

Die verfügbaren Stationen werden durch gelbe und rote Markierungen auf der Karte dargestellt.

Führen Sie die Maus auf sie, um den Namen der Station zu sehen.

Darauf klicken, um die Beobachtung von Wetterbeobachtungen und Prognosen zu sehen.

Um die Karte zu ändern : klicken Sie auf den grünen Tasten mit einem schwarzen Kreuz Zum Vergrößern, auf den grünen Button mit einem Gedankenstrich zu verkleinern, oder auf die grünen Pfeile für benachbarte Karten.


METAR-TAF: